Groesbeck, Texas
Current Conditions -  °F | °C
As of 6:15 PM on Friday 24 Oct 2014 (Local Time) from KLXY Reporting Station
Clear Clear  
Wind Chill: 77°   Ceiling: Unl
Heat Index: 79°   Visibility: 10mi
Dew Point: 61°   Wind: 3mph
Humidity: 57%   Direction: 150°SSE
Pressure: 30.09"   Gusts: NA
Location:  31.52°N, 96.53°W
Report Text: KLXY 242315Z AUTO 15003KT 10SM CLR 25/16 A3009 RMK AO2 T02520160
Loading
Personal Weather Stations






























Interactive Weather Map
Tropical Storm Tracking
New forecast layout! Learn more

10-Day Weather Forecast

Advertisements
Track Severe Weather on mobile